Time;durP1;ratioP1;P1;durP2;ratioP2;P2;SDS_P1;SDS_P2;PMS_P1;PMS_P2;Temp;Humidity;BMP_temperature;BMP_pressure;BME280_temperature;BME280_humidity;BME280_pressure;Samples;Min_cycle;Max_cycle;Signal;HPM_P1;HPM_P2
2023/03/21 00:00:47;;;;;;;41.13;32.40;;;;;;;;;;5066813;28;20494;-76
2023/03/21 00:03:14;;;;;;;43.65;34.28;;;;;;;;;;5073146;28;20060;-76
2023/03/21 00:05:41;;;;;;;40.40;32.78;;;;;;;;;;5055422;28;20040;-76
2023/03/21 00:08:07;;;;;;;36.60;30.95;;;;;;;;;;5073058;28;20060;-76
2023/03/21 00:10:33;;;;;;;41.42;33.08;;;;;;;;;;5056659;28;20392;-76
2023/03/21 00:12:59;;;;;;;50.42;35.75;;;;;;;;;;5068237;28;20403;-76
2023/03/21 00:15:26;;;;;;;40.80;32.78;;;;;;;;;;5061189;28;20561;-76
2023/03/21 00:18:10;;;;;;;40.17;32.03;;;;;;;;;;5072891;28;20050;-76
2023/03/21 00:20:36;;;;;;;42.55;32.78;;;;;;;;;;5073013;28;20041;-76
2023/03/21 00:23:03;;;;;;;41.28;32.95;;;;;;;;;;5066603;28;20052;-76
2023/03/21 00:25:31;;;;;;;40.00;32.13;;;;;;;;;;5059419;28;20048;-76
2023/03/21 00:27:57;;;;;;;37.80;31.80;;;;;;;;;;5055905;28;20045;-76
2023/03/21 00:30:24;;;;;;;46.80;33.80;;;;;;;;;;5055564;28;20040;-76
2023/03/21 00:32:50;;;;;;;41.95;32.83;;;;;;;;;;5057491;28;20090;-76
2023/03/21 00:35:16;;;;;;;52.83;35.38;;;;;;;;;;5059330;28;20044;-76
2023/03/21 00:37:42;;;;;;;51.22;35.92;;;;;;;;;;5056798;28;20040;-76
2023/03/21 00:40:09;;;;;;;49.17;34.75;;;;;;;;;;5058481;28;20044;-76
2023/03/21 00:42:35;;;;;;;47.17;34.47;;;;;;;;;;5057557;28;20552;-76
2023/03/21 00:45:03;;;;;;;54.05;36.85;;;;;;;;;;5060138;28;20044;-76
2023/03/21 00:47:29;;;;;;;52.03;36.38;;;;;;;;;;5061876;28;20040;-76
2023/03/21 00:49:55;;;;;;;55.70;36.03;;;;;;;;;;5057327;28;20044;-76
2023/03/21 00:52:21;;;;;;;49.28;35.72;;;;;;;;;;5060905;28;20059;-76
2023/03/21 00:54:47;;;;;;;49.88;34.47;;;;;;;;;;5064417;28;20494;-76
2023/03/21 00:57:14;;;;;;;39.85;31.88;;;;;;;;;;5060891;28;20041;-76
2023/03/21 00:59:40;;;;;;;46.35;33.58;;;;;;;;;;5056912;28;20041;-76
2023/03/21 01:02:06;;;;;;;46.72;33.85;;;;;;;;;;5056215;28;20057;-76
2023/03/21 01:04:33;;;;;;;44.90;33.00;;;;;;;;;;5056580;28;20045;-76
2023/03/21 01:06:59;;;;;;;40.30;30.98;;;;;;;;;;5066424;28;20071;-76
2023/03/21 01:09:26;;;;;;;50.47;34.25;;;;;;;;;;5076322;28;20088;-76
2023/03/21 01:11:52;;;;;;;48.55;33.00;;;;;;;;;;5072212;28;20140;-76
2023/03/21 01:14:20;;;;;;;49.83;34.45;;;;;;;;;;5073258;28;20067;-76
2023/03/21 01:16:46;;;;;;;54.15;34.70;;;;;;;;;;5076382;28;20052;-76
2023/03/21 01:19:14;;;;;;;52.90;34.42;;;;;;;;;;5076236;28;20044;-76
2023/03/21 01:21:41;;;;;;;49.35;35.00;;;;;;;;;;5076216;28;20045;-76
2023/03/21 01:24:07;;;;;;;51.53;33.58;;;;;;;;;;5074422;28;20045;-76
2023/03/21 01:26:33;;;;;;;44.00;32.45;;;;;;;;;;5076500;28;20044;-76
2023/03/21 01:28:59;;;;;;;61.40;36.17;;;;;;;;;;5075375;28;20048;-76
2023/03/21 01:31:26;;;;;;;45.63;32.67;;;;;;;;;;5067916;28;20040;-76
2023/03/21 01:33:52;;;;;;;47.13;32.90;;;;;;;;;;5060212;28;20045;-76
2023/03/21 01:36:20;;;;;;;48.92;32.38;;;;;;;;;;5063137;28;20052;-76
2023/03/21 01:38:47;;;;;;;54.35;33.50;;;;;;;;;;5059229;28;20053;-76
2023/03/21 01:41:21;;;;;;;53.80;32.80;;;;;;;;;;5064907;28;20044;-76
2023/03/21 01:43:47;;;;;;;42.40;29.80;;;;;;;;;;5057844;28;20044;-76
2023/03/21 01:46:34;;;;;;;38.75;28.30;;;;;;;;;;5059021;28;20480;-76
2023/03/21 01:49:00;;;;;;;46.25;31.33;;;;;;;;;;5058492;28;20493;-76
2023/03/21 01:51:28;;;;;;;40.80;29.67;;;;;;;;;;5061121;28;20041;-76
2023/03/21 01:53:54;;;;;;;53.40;32.08;;;;;;;;;;5060568;28;20060;-76
2023/03/21 01:56:26;;;;;;;49.15;31.80;;;;;;;;;;5058040;28;20653;-76
2023/03/21 01:58:54;;;;;;;;;;;;;;;;;;5061382;28;20052;-76
2023/03/21 02:01:21;;;;;;;40.10;28.63;;;;;;;;;;5095619;28;19936;-76
2023/03/21 02:03:50;;;;;;;47.25;29.67;;;;;;;;;;5084642;28;20051;-76
2023/03/21 02:06:32;;;;;;;46.42;30.00;;;;;;;;;;5075459;28;20044;-77
2023/03/21 02:14:44;;;;;;;;;;;;;;;;;;4992041;28;20056;-76
2023/03/21 02:17:14;;;;;;;45.38;28.10;;;;;;;;;;4990447;28;19928;-76
2023/03/21 02:19:59;;;;;;;48.03;29.77;;;;;;;;;;4991315;28;20442;-77
2023/03/21 02:22:28;;;;;;;42.92;27.65;;;;;;;;;;4991507;28;20050;-76
2023/03/21 02:25:05;;;;;;;42.55;27.60;;;;;;;;;;4991431;28;20061;-76
2023/03/21 02:27:39;;;;;;;43.75;29.67;;;;;;;;;;4992099;28;20116;-76
2023/03/21 02:30:11;;;;;;;47.65;30.45;;;;;;;;;;4994971;28;20072;-76
2023/03/21 02:32:56;;;;;;;54.58;31.10;;;;;;;;;;4989279;28;20499;-76
2023/03/21 02:35:22;;;;;;;55.42;32.28;;;;;;;;;;4988625;28;20041;-76
2023/03/21 02:37:51;;;;;;;52.75;29.95;;;;;;;;;;4986267;28;20050;-76
2023/03/21 02:40:26;;;;;;;44.15;27.35;;;;;;;;;;4991575;28;20042;-76
2023/03/21 02:43:01;;;;;;;39.03;24.90;;;;;;;;;;4988998;28;20551;-76
2023/03/21 02:45:32;;;;;;;38.40;25.60;;;;;;;;;;4991600;28;20077;-76
2023/03/21 02:48:03;;;;;;;37.60;25.23;;;;;;;;;;4991678;28;20073;-76
2023/03/21 02:50:36;;;;;;;39.55;25.23;;;;;;;;;;4988444;28;20050;-77
2023/03/21 02:53:02;;;;;;;36.63;23.92;;;;;;;;;;4992048;28;20046;-76
2023/03/21 02:55:31;;;;;;;41.28;25.17;;;;;;;;;;4988102;28;20069;-76
2023/03/21 02:57:57;;;;;;;37.08;24.10;;;;;;;;;;4991413;28;20046;-76
2023/03/21 03:00:26;;;;;;;32.00;22.90;;;;;;;;;;4993246;28;20054;-75
2023/03/21 03:02:53;;;;;;;37.10;23.13;;;;;;;;;;5006251;28;20058;-76
2023/03/21 03:05:23;;;;;;;34.58;23.38;;;;;;;;;;4991650;28;20046;-76
2023/03/21 03:07:49;;;;;;;33.47;22.77;;;;;;;;;;4992050;28;20054;-76
2023/03/21 03:10:24;;;;;;;36.92;23.05;;;;;;;;;;4990873;28;20059;-76
2023/03/21 03:13:08;;;;;;;32.72;22.13;;;;;;;;;;4993558;28;20046;-76
2023/03/21 03:15:34;;;;;;;36.03;21.80;;;;;;;;;;5015248;28;20053;-76
2023/03/21 03:18:12;;;;;;;35.47;22.23;;;;;;;;;;4983602;28;20052;-76
2023/03/21 03:20:52;;;;;;;28.30;20.67;;;;;;;;;;5004100;28;20054;-76
2023/03/21 03:23:25;;;;;;;32.78;20.60;;;;;;;;;;4993817;28;20117;-76
2023/03/21 03:25:53;;;;;;;36.08;21.40;;;;;;;;;;4998330;28;20054;-76
2023/03/21 03:28:24;;;;;;;31.08;20.92;;;;;;;;;;5000600;28;20045;-77
2023/03/21 03:30:50;;;;;;;;;;;;;;;;;;4999534;28;20039;-76
2023/03/21 03:33:22;;;;;;;31.30;21.25;;;;;;;;;;4999598;28;19921;-76
2023/03/21 03:35:49;;;;;;;29.20;20.80;;;;;;;;;;4999626;28;20046;-75
2023/03/21 03:38:16;;;;;;;29.85;19.92;;;;;;;;;;4998913;28;20043;-76
2023/03/21 03:40:49;;;;;;;36.35;22.35;;;;;;;;;;4998638;28;20056;-77
2023/03/21 03:43:19;;;;;;;28.48;21.40;;;;;;;;;;4997422;28;20127;-76
2023/03/21 03:45:48;;;;;;;34.72;22.73;;;;;;;;;;4999672;28;20100;-76
2023/03/21 03:48:21;;;;;;;31.98;22.00;;;;;;;;;;4999389;28;20049;-76
2023/03/21 03:50:53;;;;;;;31.20;21.77;;;;;;;;;;4997370;28;20046;-77
2023/03/21 03:53:28;;;;;;;31.10;21.10;;;;;;;;;;4996988;28;20045;-77
2023/03/21 03:55:55;;;;;;;30.92;21.25;;;;;;;;;;4993225;28;20407;-76
2023/03/21 03:58:21;;;;;;;33.90;21.67;;;;;;;;;;4999259;28;20039;-77
2023/03/21 04:00:48;;;;;;;30.83;21.23;;;;;;;;;;4999535;28;20720;-76
2023/03/21 04:03:14;;;;;;;28.30;19.40;;;;;;;;;;5000588;28;20050;-76
2023/03/21 04:05:41;;;;;;;30.52;20.45;;;;;;;;;;4999814;28;20483;-76
2023/03/21 04:08:07;;;;;;;36.85;22.75;;;;;;;;;;4999500;28;20045;-77
2023/03/21 04:10:34;;;;;;;32.72;22.00;;;;;;;;;;5000197;28;20053;-76
2023/03/21 04:13:00;;;;;;;31.08;22.15;;;;;;;;;;4995160;28;20096;-77
2023/03/21 04:15:26;;;;;;;29.10;21.27;;;;;;;;;;5000633;28;20044;-77
2023/03/21 04:17:52;;;;;;;28.98;21.35;;;;;;;;;;4988469;28;20042;-76
2023/03/21 04:20:19;;;;;;;28.38;22.17;;;;;;;;;;4973839;28;20478;-77
2023/03/21 04:22:45;;;;;;;36.67;22.95;;;;;;;;;;4987879;28;20045;-77
2023/03/21 04:25:12;;;;;;;28.55;20.17;;;;;;;;;;4989720;28;20053;-76
2023/03/21 04:27:38;;;;;;;31.13;21.70;;;;;;;;;;4990654;28;20050;-76
2023/03/21 04:30:06;;;;;;;28.08;20.65;;;;;;;;;;4986320;28;20500;-76
2023/03/21 04:32:32;;;;;;;31.00;22.75;;;;;;;;;;4991870;28;20377;-77
2023/03/21 04:34:59;;;;;;;30.35;21.70;;;;;;;;;;4991619;28;20038;-77
2023/03/21 04:37:26;;;;;;;32.95;23.77;;;;;;;;;;4990553;28;20047;-77
2023/03/21 04:39:53;;;;;;;30.77;22.75;;;;;;;;;;4993168;28;20046;-77
2023/03/21 04:42:19;;;;;;;33.92;23.50;;;;;;;;;;4992273;28;20046;-77
2023/03/21 04:44:46;;;;;;;30.35;23.33;;;;;;;;;;4989654;28;20780;-77
2023/03/21 04:47:14;;;;;;;35.00;24.33;;;;;;;;;;4990561;28;20125;-75
2023/03/21 04:49:40;;;;;;;29.30;21.90;;;;;;;;;;4988540;28;20415;-76
2023/03/21 04:52:06;;;;;;;35.55;24.58;;;;;;;;;;4965746;28;20093;-76
2023/03/21 04:54:32;;;;;;;32.15;23.75;;;;;;;;;;4987891;28;20050;-76
2023/03/21 04:56:58;;;;;;;32.90;23.77;;;;;;;;;;4987556;28;20042;-77
2023/03/21 04:59:25;;;;;;;32.33;24.08;;;;;;;;;;4990351;28;20427;-77
2023/03/21 05:01:51;;;;;;;41.65;26.95;;;;;;;;;;4967277;28;20035;-77
2023/03/21 05:04:18;;;;;;;31.60;22.90;;;;;;;;;;4991404;28;20102;-76
2023/03/21 05:06:44;;;;;;;34.60;23.30;;;;;;;;;;4990209;28;20046;-75
2023/03/21 05:09:11;;;;;;;29.20;21.95;;;;;;;;;;4991998;28;20058;-77
2023/03/21 05:11:38;;;;;;;34.30;24.95;;;;;;;;;;4988131;28;20062;-77
2023/03/21 05:14:04;;;;;;;35.72;25.25;;;;;;;;;;4994698;28;20097;-77
2023/03/21 05:16:31;;;;;;;42.33;27.20;;;;;;;;;;5000240;28;20060;-76
2023/03/21 05:18:58;;;;;;;36.97;26.15;;;;;;;;;;4996820;28;20077;-78
2023/03/21 05:21:28;;;;;;;43.90;27.90;;;;;;;;;;5000064;28;20418;-77
2023/03/21 05:23:54;;;;;;;46.90;29.10;;;;;;;;;;4997327;28;20050;-76
2023/03/21 05:26:21;;;;;;;37.60;27.10;;;;;;;;;;4998948;28;20317;-77
2023/03/21 05:28:48;;;;;;;39.63;26.80;;;;;;;;;;4997930;28;20038;-76
2023/03/21 05:31:15;;;;;;;40.25;26.92;;;;;;;;;;4995091;28;20042;-76
2023/03/21 05:33:42;;;;;;;47.95;29.88;;;;;;;;;;4994032;28;20492;-76
2023/03/21 05:36:08;;;;;;;41.95;28.35;;;;;;;;;;5001170;28;20042;-77
2023/03/21 05:38:34;;;;;;;44.22;29.83;;;;;;;;;;5000775;28;20056;-77
2023/03/21 05:41:00;;;;;;;38.92;26.65;;;;;;;;;;5003685;28;20089;-77
2023/03/21 05:43:26;;;;;;;48.13;30.15;;;;;;;;;;5004282;28;20102;-77
2023/03/21 05:45:54;;;;;;;40.20;27.83;;;;;;;;;;4994598;28;20784;-77
2023/03/21 05:48:20;;;;;;;48.08;29.95;;;;;;;;;;4992717;28;20397;-75
2023/03/21 05:50:46;;;;;;;51.25;31.02;;;;;;;;;;4992215;28;20045;-76
2023/03/21 05:53:12;;;;;;;41.10;28.63;;;;;;;;;;4994756;28;20042;-76
2023/03/21 05:55:38;;;;;;;40.58;28.98;;;;;;;;;;4988043;28;20057;-76
2023/03/21 05:58:04;;;;;;;48.75;31.17;;;;;;;;;;4991186;28;20054;-76
2023/03/21 06:00:30;;;;;;;46.00;29.52;;;;;;;;;;4989956;28;20053;-76
2023/03/21 06:02:57;;;;;;;36.03;25.85;;;;;;;;;;4994427;28;20053;-76
2023/03/21 06:05:23;;;;;;;46.50;29.77;;;;;;;;;;4989372;28;20049;-77
2023/03/21 06:07:49;;;;;;;44.40;30.30;;;;;;;;;;4989505;28;20122;-76
2023/03/21 06:10:15;;;;;;;40.15;28.80;;;;;;;;;;4991986;28;20404;-77
2023/03/21 06:12:42;;;;;;;47.35;29.75;;;;;;;;;;4989880;28;20049;-77
2023/03/21 06:15:08;;;;;;;43.35;28.73;;;;;;;;;;4991622;28;20105;-77
2023/03/21 06:17:34;;;;;;;41.90;27.98;;;;;;;;;;4992720;28;20121;-77
2023/03/21 06:20:00;;;;;;;43.17;29.15;;;;;;;;;;4987723;28;20046;-77
2023/03/21 06:22:27;;;;;;;37.20;26.48;;;;;;;;;;4986099;28;20047;-77
2023/03/21 06:24:53;;;;;;;39.17;28.08;;;;;;;;;;4991942;28;20098;-77
2023/03/21 06:27:19;;;;;;;42.72;28.95;;;;;;;;;;4989429;28;20045;-76
2023/03/21 06:29:45;;;;;;;38.78;28.55;;;;;;;;;;4994921;28;20049;-76
2023/03/21 06:32:12;;;;;;;41.60;27.73;;;;;;;;;;4995675;28;20045;-77
2023/03/21 06:34:38;;;;;;;35.05;25.45;;;;;;;;;;4990012;28;20288;-77
2023/03/21 06:37:04;;;;;;;33.92;24.48;;;;;;;;;;4995273;28;20054;-76
2023/03/21 06:39:31;;;;;;;40.13;27.65;;;;;;;;;;4996313;28;20047;-77
2023/03/21 06:41:58;;;;;;;36.42;26.05;;;;;;;;;;4990856;28;20115;-77
2023/03/21 06:44:24;;;;;;;40.25;27.17;;;;;;;;;;5007860;28;20049;-77
2023/03/21 06:46:51;;;;;;;37.15;26.70;;;;;;;;;;4994633;28;20093;-77
2023/03/21 06:49:17;;;;;;;37.20;25.80;;;;;;;;;;4992883;28;20043;-77
2023/03/21 06:51:43;;;;;;;37.78;26.58;;;;;;;;;;4976359;28;20436;-77
2023/03/21 06:54:10;;;;;;;36.17;25.35;;;;;;;;;;4994153;28;20062;-78
2023/03/21 06:56:36;;;;;;;33.78;23.10;;;;;;;;;;4995122;28;20085;-77
2023/03/21 06:59:02;;;;;;;35.60;24.15;;;;;;;;;;4992792;28;20049;-77
2023/03/21 07:01:29;;;;;;;31.45;22.95;;;;;;;;;;4992572;28;20058;-77
2023/03/21 07:03:56;;;;;;;36.05;24.33;;;;;;;;;;4996131;28;20059;-77
2023/03/21 07:06:25;;;;;;;29.17;21.92;;;;;;;;;;4996128;28;20042;-78
2023/03/21 07:08:51;;;;;;;33.08;22.85;;;;;;;;;;4990265;28;20038;-78
2023/03/21 07:11:17;;;;;;;30.67;22.02;;;;;;;;;;4990552;28;20376;-78
2023/03/21 07:13:44;;;;;;;29.27;21.48;;;;;;;;;;5000944;28;20058;-78
2023/03/21 07:16:10;;;;;;;28.92;21.17;;;;;;;;;;5004729;28;20066;-77
2023/03/21 07:18:37;;;;;;;27.70;20.40;;;;;;;;;;5003263;28;20078;-78
2023/03/21 07:21:03;;;;;;;28.00;20.67;;;;;;;;;;5004520;28;20042;-78
2023/03/21 07:23:29;;;;;;;26.90;20.55;;;;;;;;;;5003625;28;20043;-78
2023/03/21 07:25:56;;;;;;;24.70;19.15;;;;;;;;;;5005014;28;20046;-77
2023/03/21 07:28:22;;;;;;;22.58;17.98;;;;;;;;;;5005403;28;20121;-77
2023/03/21 07:30:55;;;;;;;23.05;18.00;;;;;;;;;;5004489;28;20058;-77
2023/03/21 07:33:22;;;;;;;23.75;17.35;;;;;;;;;;5002385;28;20065;-77
2023/03/21 07:35:52;;;;;;;24.42;17.90;;;;;;;;;;5001930;28;20054;-77
2023/03/21 07:38:18;;;;;;;21.58;17.17;;;;;;;;;;4994344;28;20050;-78
2023/03/21 07:40:45;;;;;;;20.80;16.00;;;;;;;;;;4993251;28;20077;-77
2023/03/21 07:43:12;;;;;;;19.70;15.52;;;;;;;;;;5018668;28;20149;-77
2023/03/21 07:45:38;;;;;;;21.88;15.70;;;;;;;;;;4996340;28;20108;-77
2023/03/21 07:48:04;;;;;;;21.60;16.15;;;;;;;;;;4986965;28;20074;-78
2023/03/21 07:50:30;;;;;;;18.45;14.90;;;;;;;;;;4992169;28;20515;-77
2023/03/21 07:52:56;;;;;;;19.65;15.55;;;;;;;;;;4994877;28;20129;-77
2023/03/21 07:55:22;;;;;;;19.45;15.63;;;;;;;;;;4995397;28;20038;-77
2023/03/21 07:57:51;;;;;;;19.48;14.77;;;;;;;;;;4992943;28;20101;-77
2023/03/21 08:00:21;;;;;;;19.90;15.48;;;;;;;;;;4994661;28;20074;-77
2023/03/21 08:02:57;;;;;;;19.17;15.07;;;;;;;;;;4993730;28;20079;-77
2023/03/21 08:05:24;;;;;;;20.45;15.65;;;;;;;;;;4997942;28;20046;-78
2023/03/21 08:07:50;;;;;;;20.30;15.00;;;;;;;;;;4983326;28;20062;-76
2023/03/21 08:10:16;;;;;;;20.92;16.60;;;;;;;;;;4998977;28;20483;-77
2023/03/21 08:12:43;;;;;;;18.23;15.73;;;;;;;;;;5000152;28;20046;-77
2023/03/21 08:15:10;;;;;;;20.55;16.17;;;;;;;;;;4999354;28;20042;-77
2023/03/21 08:17:36;;;;;;;19.25;15.45;;;;;;;;;;4999808;28;20078;-78
2023/03/21 08:20:06;;;;;;;19.17;14.82;;;;;;;;;;4998396;28;20042;-77
2023/03/21 08:22:32;;;;;;;19.00;15.35;;;;;;;;;;4998891;28;20411;-78
2023/03/21 08:24:58;;;;;;;20.10;14.90;;;;;;;;;;4998046;28;20057;-78
2023/03/21 08:27:24;;;;;;;19.63;14.45;;;;;;;;;;4994270;28;20053;-77
2023/03/21 08:29:50;;;;;;;19.10;15.50;;;;;;;;;;4999986;28;20054;-78
2023/03/21 08:32:18;;;;;;;18.30;14.60;;;;;;;;;;5000200;28;20053;-78
2023/03/21 08:34:44;;;;;;;18.40;14.25;;;;;;;;;;4998706;28;20078;-78
2023/03/21 08:37:10;;;;;;;19.48;13.00;;;;;;;;;;4997690;28;20049;-77
2023/03/21 08:39:37;;;;;;;16.50;13.25;;;;;;;;;;4998047;28;20035;-77
2023/03/21 08:42:04;;;;;;;21.45;14.30;;;;;;;;;;4989689;28;20413;-78
2023/03/21 08:44:30;;;;;;;19.10;14.50;;;;;;;;;;4985618;28;20046;-77
2023/03/21 08:46:56;;;;;;;18.05;13.75;;;;;;;;;;4995432;28;20448;-77
2023/03/21 08:49:23;;;;;;;18.17;13.85;;;;;;;;;;4999137;28;20042;-77
2023/03/21 08:51:49;;;;;;;20.52;14.48;;;;;;;;;;4996678;28;20035;-77
2023/03/21 08:54:20;;;;;;;19.25;14.85;;;;;;;;;;4996567;28;20049;-78
2023/03/21 08:56:46;;;;;;;19.80;14.63;;;;;;;;;;4996650;28;20048;-77
2023/03/21 08:59:12;;;;;;;20.98;14.35;;;;;;;;;;4996437;28;20053;-76
2023/03/21 09:01:38;;;;;;;20.35;14.07;;;;;;;;;;4990399;28;20051;-78
2023/03/21 09:04:06;;;;;;;21.40;15.10;;;;;;;;;;4979744;28;20089;-78
2023/03/21 09:06:33;;;;;;;20.67;14.23;;;;;;;;;;4992968;28;20049;-77
2023/03/21 09:08:59;;;;;;;18.60;14.45;;;;;;;;;;4997533;28;20042;-77
2023/03/21 09:11:25;;;;;;;19.70;14.77;;;;;;;;;;5000638;28;20046;-77
2023/03/21 09:13:51;;;;;;;21.13;14.20;;;;;;;;;;4999675;28;20062;-77
2023/03/21 09:16:17;;;;;;;19.20;14.13;;;;;;;;;;4998285;28;20395;-78
2023/03/21 09:18:45;;;;;;;20.85;14.88;;;;;;;;;;4994032;28;20046;-77
2023/03/21 09:21:13;;;;;;;24.05;16.23;;;;;;;;;;4983202;28;20074;-77
2023/03/21 09:23:43;;;;;;;23.23;15.98;;;;;;;;;;4983508;28;20053;-76
2023/03/21 09:26:10;;;;;;;25.63;16.17;;;;;;;;;;4983474;28;20039;-77
2023/03/21 09:28:37;;;;;;;23.95;15.77;;;;;;;;;;4984230;28;20459;-77
2023/03/21 09:31:04;;;;;;;23.67;16.20;;;;;;;;;;5002000;28;20083;-77
2023/03/21 09:33:31;;;;;;;25.83;17.00;;;;;;;;;;5001334;28;20426;-77
2023/03/21 09:35:59;;;;;;;26.60;16.27;;;;;;;;;;5000636;28;20042;-77
2023/03/21 09:38:29;;;;;;;24.88;16.13;;;;;;;;;;5000828;28;20530;-76
2023/03/21 09:41:14;;;;;;;26.77;17.05;;;;;;;;;;4998435;28;20117;-76
2023/03/21 09:43:58;;;;;;;30.10;16.65;;;;;;;;;;5000410;28;20395;-76
2023/03/21 09:46:36;;;;;;;27.77;15.88;;;;;;;;;;4982399;28;20419;-78
2023/03/21 09:49:08;;;;;;;29.27;16.35;;;;;;;;;;4982017;28;20081;-77
2023/03/21 09:51:36;;;;;;;24.65;16.30;;;;;;;;;;4998487;28;20061;-77
2023/03/21 09:54:06;;;;;;;28.98;16.92;;;;;;;;;;4996745;28;20062;-77
2023/03/21 09:56:34;;;;;;;27.17;17.63;;;;;;;;;;4997860;28;20062;-77
2023/03/21 09:59:00;;;;;;;22.05;15.55;;;;;;;;;;5000693;28;20042;-77
2023/03/21 10:01:32;;;;;;;27.10;16.98;;;;;;;;;;4999298;28;20046;-77
2023/03/21 10:04:00;;;;;;;31.80;17.83;;;;;;;;;;5002112;28;20046;-77
2023/03/21 10:06:30;;;;;;;24.38;17.05;;;;;;;;;;5001090;28;20038;-78
2023/03/21 10:09:08;;;;;;;29.00;16.33;;;;;;;;;;5000601;28;20403;-78
2023/03/21 10:11:46;;;;;;;28.75;15.75;;;;;;;;;;5001820;28;20046;-77
2023/03/21 10:14:16;;;;;;;25.77;16.00;;;;;;;;;;4997776;28;20069;-78
2023/03/21 10:16:44;;;;;;;22.67;16.08;;;;;;;;;;4981889;28;20135;-77
2023/03/21 10:19:12;;;;;;;24.58;15.82;;;;;;;;;;4984647;28;20086;-76
2023/03/21 10:21:44;;;;;;;24.33;15.95;;;;;;;;;;5001683;28;20081;-77
2023/03/21 10:24:14;;;;;;;26.02;16.42;;;;;;;;;;4993998;28;20042;-77
2023/03/21 10:26:41;;;;;;;25.60;16.38;;;;;;;;;;5001045;28;20038;-77
2023/03/21 10:29:09;;;;;;;22.85;15.27;;;;;;;;;;4993962;28;20042;-77
2023/03/21 10:31:36;;;;;;;22.77;14.65;;;;;;;;;;5000785;28;20047;-77
2023/03/21 10:34:05;;;;;;;25.58;16.70;;;;;;;;;;5000203;28;20428;-77
2023/03/21 10:36:32;;;;;;;27.13;15.70;;;;;;;;;;4996060;28;20161;-78
2023/03/21 10:39:03;;;;;;;22.30;15.07;;;;;;;;;;4983146;28;20522;-77
2023/03/21 10:41:30;;;;;;;25.27;15.27;;;;;;;;;;4982350;28;20515;-77
2023/03/21 10:44:07;;;;;;;24.80;15.20;;;;;;;;;;5000480;28;20142;-77
2023/03/21 10:46:34;;;;;;;24.63;15.45;;;;;;;;;;4997943;28;20077;-77
2023/03/21 10:49:01;;;;;;;25.38;15.18;;;;;;;;;;4993654;28;20058;-77
2023/03/21 10:51:30;;;;;;;23.10;15.38;;;;;;;;;;4998429;28;20046;-78
2023/03/21 10:54:03;;;;;;;24.85;15.18;;;;;;;;;;4999009;28;20140;-77
2023/03/21 10:56:30;;;;;;;24.08;15.23;;;;;;;;;;4999928;28;20046;-77
2023/03/21 10:58:58;;;;;;;20.63;14.57;;;;;;;;;;4997460;28;20415;-78
2023/03/21 11:01:30;;;;;;;21.52;13.60;;;;;;;;;;4999435;28;20484;-77
2023/03/21 11:03:59;;;;;;;27.77;15.93;;;;;;;;;;4998847;28;20105;-77
2023/03/21 11:06:26;;;;;;;25.42;15.35;;;;;;;;;;4999463;28;20114;-77
2023/03/21 11:08:56;;;;;;;21.10;14.25;;;;;;;;;;4999661;28;20073;-77
2023/03/21 11:11:27;;;;;;;25.50;15.18;;;;;;;;;;4998202;28;20053;-78
2023/03/21 11:14:05;;;;;;;28.25;15.90;;;;;;;;;;4999888;28;20054;-77
2023/03/21 11:16:35;;;;;;;22.77;15.55;;;;;;;;;;5000060;28;20036;-78
2023/03/21 11:19:03;;;;;;;26.10;16.17;;;;;;;;;;5001178;28;20538;-78
2023/03/21 11:21:35;;;;;;;25.15;15.25;;;;;;;;;;5000436;28;20043;-77
2023/03/21 11:24:02;;;;;;;22.42;13.98;;;;;;;;;;5000117;28;20049;-77
2023/03/21 11:26:35;;;;;;;23.60;14.60;;;;;;;;;;5000479;28;20378;-77
2023/03/21 11:29:31;;;;;;;21.50;14.95;;;;;;;;;;4998658;28;20053;-79
2023/03/21 11:31:58;;;;;;;22.83;14.52;;;;;;;;;;4998741;28;20054;-78
2023/03/21 11:34:37;;;;;;;24.90;15.48;;;;;;;;;;4996157;28;20128;-77
2023/03/21 11:37:03;;;;;;;24.83;13.82;;;;;;;;;;4980233;28;20043;-77
2023/03/21 11:39:34;;;;;;;18.67;13.35;;;;;;;;;;4997659;28;20480;-77
2023/03/21 11:42:00;;;;;;;21.60;13.98;;;;;;;;;;4983165;28;20042;-77
2023/03/21 11:44:34;;;;;;;21.40;12.48;;;;;;;;;;4999652;28;20050;-76
2023/03/21 11:47:01;;;;;;;19.85;11.45;;;;;;;;;;4997365;28;20069;-76
2023/03/21 11:49:27;;;;;;;22.48;12.73;;;;;;;;;;4998897;28;20046;-76
2023/03/21 11:51:58;;;;;;;16.92;12.20;;;;;;;;;;4999071;28;20048;-78
2023/03/21 11:54:36;;;;;;;18.75;11.68;;;;;;;;;;4999615;28;20060;-78
2023/03/21 11:57:08;;;;;;;18.70;11.45;;;;;;;;;;4999469;28;20046;-76
2023/03/21 12:00:13;;;;;;;20.50;11.70;;;;;;;;;;4999131;28;20042;-76
2023/03/21 12:02:53;;;;;;;17.58;10.80;;;;;;;;;;4995976;28;20066;-77
2023/03/21 12:05:31;;;;;;;15.80;9.87;;;;;;;;;;4997922;28;20521;-76
2023/03/21 12:08:12;;;;;;;17.60;9.57;;;;;;;;;;4982205;28;20663;-77
2023/03/21 12:10:44;;;;;;;16.13;9.15;;;;;;;;;;4997840;28;20768;-77
2023/03/21 12:13:23;;;;;;;14.40;9.27;;;;;;;;;;4998226;28;20135;-77
2023/03/21 12:16:07;;;;;;;17.13;8.20;;;;;;;;;;4981450;28;20500;-76
2023/03/21 12:18:50;;;;;;;14.05;8.85;;;;;;;;;;4997147;28;20044;-77
2023/03/21 12:21:20;;;;;;;16.58;8.63;;;;;;;;;;4996415;28;20467;-77
2023/03/21 12:23:46;;;;;;;13.55;7.95;;;;;;;;;;4997927;28;20401;-77
2023/03/21 12:26:17;;;;;;;18.70;8.60;;;;;;;;;;4996377;28;20050;-76
2023/03/21 12:28:46;;;;;;;15.48;8.27;;;;;;;;;;4996167;28;20039;-77
2023/03/21 12:31:20;;;;;;;16.20;8.52;;;;;;;;;;4978705;28;20164;-78
2023/03/21 12:33:47;;;;;;;14.60;8.65;;;;;;;;;;4978591;28;20065;-76
2023/03/21 12:36:15;;;;;;;14.80;8.13;;;;;;;;;;4989707;28;20050;-77
2023/03/21 12:38:53;;;;;;;15.73;8.30;;;;;;;;;;4995549;28;20042;-77
2023/03/21 12:41:19;;;;;;;15.20;8.63;;;;;;;;;;4994753;28;20133;-76
2023/03/21 12:44:05;;;;;;;15.40;7.72;;;;;;;;;;4993953;28;20042;-77
2023/03/21 12:46:37;;;;;;;15.82;8.18;;;;;;;;;;4997989;28;20046;-79
2023/03/21 12:49:17;;;;;;;13.18;7.35;;;;;;;;;;5001100;28;20044;-78
2023/03/21 12:51:46;;;;;;;13.48;7.85;;;;;;;;;;4991490;28;20042;-76
2023/03/21 12:54:12;;;;;;;16.13;8.07;;;;;;;;;;4982362;28;20350;-78
2023/03/21 12:56:45;;;;;;;15.10;7.90;;;;;;;;;;4994813;28;20042;-77
2023/03/21 12:59:14;;;;;;;17.48;8.57;;;;;;;;;;4992083;28;20536;-76
2023/03/21 13:01:42;;;;;;;13.23;7.53;;;;;;;;;;4994888;28;20085;-76
2023/03/21 13:04:14;;;;;;;17.77;8.00;;;;;;;;;;4989327;28;20058;-79
2023/03/21 13:06:41;;;;;;;13.30;7.40;;;;;;;;;;4995325;28;20124;-77
2023/03/21 13:09:14;;;;;;;15.35;7.57;;;;;;;;;;4996318;28;20043;-78
2023/03/21 13:11:40;;;;;;;15.43;7.47;;;;;;;;;;4997950;28;20038;-77
2023/03/21 13:14:08;;;;;;;13.57;7.30;;;;;;;;;;4996891;28;20055;-78
2023/03/21 13:16:57;;;;;;;14.55;7.65;;;;;;;;;;4997008;28;20093;-76
2023/03/21 13:19:23;;;;;;;15.10;8.18;;;;;;;;;;4989597;28;20063;-78
2023/03/21 13:22:08;;;;;;;11.80;7.10;;;;;;;;;;4993271;28;20090;-77
2023/03/21 13:24:42;;;;;;;14.70;7.18;;;;;;;;;;4994766;28;20104;-77
2023/03/21 13:27:15;;;;;;;11.68;7.43;;;;;;;;;;4989819;28;20038;-77
2023/03/21 13:29:46;;;;;;;13.77;7.47;;;;;;;;;;4995007;28;20484;-77
2023/03/21 13:32:31;;;;;;;15.23;7.68;;;;;;;;;;4976131;28;20370;-77
2023/03/21 13:34:59;;;;;;;13.63;7.20;;;;;;;;;;4994075;28;20088;-77
2023/03/21 13:37:29;;;;;;;14.38;8.18;;;;;;;;;;4991027;28;20117;-79
2023/03/21 13:39:59;;;;;;;14.27;8.73;;;;;;;;;;4993142;28;20047;-78
2023/03/21 13:42:30;;;;;;;15.02;8.10;;;;;;;;;;4990982;28;20043;-77
2023/03/21 13:44:58;;;;;;;15.75;8.18;;;;;;;;;;4999395;28;20057;-77
2023/03/21 13:47:30;;;;;;;14.85;8.27;;;;;;;;;;5015478;28;20046;-77
2023/03/21 13:50:15;;;;;;;15.60;7.38;;;;;;;;;;5000984;28;20130;-78
2023/03/21 13:52:41;;;;;;;13.50;7.95;;;;;;;;;;4996031;28;20066;-77
2023/03/21 13:55:20;;;;;;;15.95;7.97;;;;;;;;;;4997118;28;20046;-78
2023/03/21 13:57:46;;;;;;;16.60;8.32;;;;;;;;;;4998140;28;20042;-78
2023/03/21 14:00:32;;;;;;;14.50;8.60;;;;;;;;;;5001438;28;20046;-77
2023/03/21 14:03:16;;;;;;;15.35;8.15;;;;;;;;;;4975567;28;20046;-77
2023/03/21 14:05:48;;;;;;;16.38;8.27;;;;;;;;;;4999361;28;20138;-77
2023/03/21 14:08:19;;;;;;;15.52;7.93;;;;;;;;;;5002780;28;20046;-77
2023/03/21 14:10:46;;;;;;;15.90;8.75;;;;;;;;;;4992815;28;20049;-77
2023/03/21 14:13:16;;;;;;;16.50;8.40;;;;;;;;;;4996811;28;20058;-77
2023/03/21 14:15:47;;;;;;;17.52;8.50;;;;;;;;;;5002911;28;20103;-77
2023/03/21 14:18:19;;;;;;;17.13;8.75;;;;;;;;;;4985120;28;20043;-77
2023/03/21 14:20:45;;;;;;;15.68;7.90;;;;;;;;;;4997104;28;20074;-77
2023/03/21 14:23:14;;;;;;;17.15;8.27;;;;;;;;;;4983596;28;20062;-77
2023/03/21 14:25:42;;;;;;;14.30;8.27;;;;;;;;;;4999702;28;20052;-77
2023/03/21 14:28:13;;;;;;;15.93;8.43;;;;;;;;;;5001022;28;20066;-77
2023/03/21 14:30:40;;;;;;;16.05;7.82;;;;;;;;;;5002405;28;20435;-77
2023/03/21 14:33:11;;;;;;;22.00;8.30;;;;;;;;;;5001019;28;20054;-77
2023/03/21 14:35:40;;;;;;;14.32;7.75;;;;;;;;;;4996507;28;20496;-77
2023/03/21 14:38:08;;;;;;;15.90;8.10;;;;;;;;;;4990652;28;20097;-77